Time;durP1;ratioP1;P1;durP2;ratioP2;P2;SDS_P1;SDS_P2;PMS_P1;PMS_P2;Temp;Humidity;BMP_temperature;BMP_pressure;BME280_temperature;BME280_humidity;BME280_pressure;Samples;Min_cycle;Max_cycle;Signal;HPM_P1;HPM_P2
2024/02/19 00:01:01;;;;;;;4.07;2.10;;;;;;;9.09;100.00;97133.81;5033675;28;20212;-68
2024/02/19 00:03:28;;;;;;;4.77;2.50;;;;;;;9.28;100.00;97126.63;5034397;28;20698;-68
2024/02/19 00:05:55;;;;;;;3.97;2.10;;;;;;;9.11;100.00;97123.97;5034972;28;20331;-68
2024/02/19 00:08:21;;;;;;;4.27;2.40;;;;;;;9.12;100.00;97133.50;5033874;28;20331;-68
2024/02/19 00:10:48;;;;;;;4.63;2.53;;;;;;;9.15;100.00;97135.84;5033775;28;20229;-67
2024/02/19 00:13:16;;;;;;;3.97;2.50;;;;;;;9.24;100.00;97137.59;5034286;28;20212;-67
2024/02/19 00:15:42;;;;;;;2.77;1.87;;;;;;;9.33;100.00;97134.06;5033901;28;20201;-68
2024/02/19 00:18:09;;;;;;;3.73;2.00;;;;;;;9.25;100.00;97136.63;5034944;28;20639;-68
2024/02/19 00:20:35;;;;;;;3.73;2.23;;;;;;;9.04;100.00;97141.31;5034921;28;20209;-67
2024/02/19 00:23:02;;;;;;;3.20;2.10;;;;;;;9.02;100.00;97131.91;5034024;28;20221;-67
2024/02/19 00:25:29;;;;;;;2.80;2.10;;;;;;;9.09;100.00;97139.06;5034485;28;20213;-67
2024/02/19 00:27:55;;;;;;;3.80;2.47;;;;;;;9.16;100.00;97134.88;5034373;28;20207;-67
2024/02/19 00:30:23;;;;;;;7.07;3.03;;;;;;;9.35;100.00;97140.03;5034353;28;20476;-67
2024/02/19 00:32:50;;;;;;;4.00;1.97;;;;;;;9.08;100.00;97137.41;5033748;28;20742;-67
2024/02/19 00:35:20;;;;;;;4.47;2.83;;;;;;;9.16;100.00;97130.47;5034557;28;20519;-67
2024/02/19 00:37:47;;;;;;;5.43;2.37;;;;;;;9.21;100.00;97130.00;5034293;28;20228;-67
2024/02/19 00:40:14;;;;;;;2.80;1.67;;;;;;;9.16;100.00;97134.88;5034587;28;20287;-67
2024/02/19 00:42:40;;;;;;;5.17;2.30;;;;;;;9.11;100.00;97131.84;5032743;28;20671;-67
2024/02/19 00:45:07;;;;;;;4.07;2.53;;;;;;;9.26;100.00;97136.47;5034984;28;20232;-67
2024/02/19 00:47:36;;;;;;;4.37;2.33;;;;;;;9.29;100.00;97127.47;5034066;28;20209;-67
2024/02/19 00:50:03;;;;;;;4.50;2.17;;;;;;;9.30;100.00;97132.56;5035241;28;20766;-67
2024/02/19 00:52:30;;;;;;;4.53;2.07;;;;;;;9.20;100.00;97134.44;5033340;28;20557;-67
2024/02/19 00:54:57;;;;;;;3.80;2.20;;;;;;;9.24;100.00;97135.81;5034373;28;20220;-67
2024/02/19 00:57:24;;;;;;;6.30;2.30;;;;;;;9.21;100.00;97135.25;5033971;28;20209;-67
2024/02/19 00:59:50;;;;;;;3.47;1.73;;;;;;;9.25;100.00;97136.63;5035726;28;20200;-66
2024/02/19 01:02:18;;;;;;;2.90;1.77;;;;;;;9.15;100.00;97138.47;5032491;28;20738;-67
2024/02/19 01:04:46;;;;;;;2.53;1.60;;;;;;;9.27;100.00;97142.56;5034588;28;20210;-66
2024/02/19 01:07:15;;;;;;;4.03;1.80;;;;;;;9.32;100.00;97140.34;5034145;28;20210;-67
2024/02/19 01:09:42;;;;;;;3.53;1.70;;;;;;;9.16;100.00;97146.22;5034196;28;20308;-67
2024/02/19 01:12:09;;;;;;;2.13;1.53;;;;;;;9.17;100.00;97147.88;5032548;28;20394;-67
2024/02/19 01:14:36;;;;;;;2.23;1.13;;;;;;;9.08;100.00;97147.94;5034397;28;20231;-66
2024/02/19 01:17:03;;;;;;;2.50;1.40;;;;;;;8.97;100.00;97153.38;5033639;28;20201;-66
2024/02/19 01:19:31;;;;;;;1.90;1.40;;;;;;;9.13;100.00;97145.69;5033388;28;20385;-67
2024/02/19 01:21:59;;;;;;;2.00;1.50;;;;;;;9.29;100.00;97148.50;5033498;28;20221;-66
2024/02/19 01:24:26;;;;;;;2.03;1.27;;;;;;;9.20;100.00;97152.00;5035596;28;20213;-67
2024/02/19 01:26:52;;;;;;;3.17;1.20;;;;;;;9.07;100.00;97145.44;5038296;28;20860;-66
2024/02/19 01:29:20;;;;;;;1.70;1.30;;;;;;;9.08;100.00;97150.56;5036980;28;20472;-66
2024/02/19 01:31:46;;;;;;;3.30;1.40;;;;;;;9.10;100.00;97162.59;5037219;28;20636;-66
2024/02/19 01:34:14;;;;;;;2.67;1.17;;;;;;;9.04;100.00;97141.31;5037491;28;20869;-67
2024/02/19 01:36:40;;;;;;;3.17;1.17;;;;;;;9.08;100.00;97142.66;5037638;28;20216;-67
2024/02/19 01:39:09;;;;;;;2.73;1.40;;;;;;;9.05;100.00;97147.38;5036733;28;20209;-66
2024/02/19 01:41:36;;;;;;;1.30;1.10;;;;;;;9.04;100.00;97137.84;5036947;28;20662;-67
2024/02/19 01:44:04;;;;;;;1.10;1.00;;;;;;;9.08;100.00;97145.31;5037618;28;20224;-66
2024/02/19 01:46:32;;;;;;;2.10;1.20;;;;;;;9.06;100.00;97152.50;5037214;28;20205;-66
2024/02/19 01:48:58;;;;;;;1.90;1.10;;;;;;;9.10;100.00;97153.88;5037497;28;20231;-67
2024/02/19 01:51:25;;;;;;;1.83;0.97;;;;;;;8.94;100.00;97161.53;5035362;28;20229;-65
2024/02/19 01:53:54;;;;;;;1.17;0.83;;;;;;;9.10;100.00;97159.97;5037425;28;20576;-67
2024/02/19 01:56:22;;;;;;;1.60;1.17;;;;;;;9.02;100.00;97150.31;5036794;28;20209;-65
2024/02/19 01:58:49;;;;;;;3.87;1.57;;;;;;;8.92;100.00;97158.22;5037336;28;20201;-66
2024/02/19 02:01:16;;;;;;;1.00;0.70;;;;;;;9.04;100.00;97141.31;5036746;28;20225;-67
2024/02/19 02:03:43;;;;;;;2.30;1.10;;;;;;;8.88;100.00;97148.97;5037029;28;20206;-64
2024/02/19 02:06:10;;;;;;;1.83;1.13;;;;;;;8.91;100.00;97146.06;5036642;28;20198;-64
2024/02/19 02:08:39;;;;;;;2.70;1.30;;;;;;;9.03;100.00;97141.47;5037816;28;20221;-67
2024/02/19 02:11:05;;;;;;;1.27;0.83;;;;;;;9.17;100.00;97142.59;5035981;28;20585;-67
2024/02/19 02:13:34;;;;;;;1.37;1.10;;;;;;;9.20;100.00;97137.06;5036271;28;20214;-66
2024/02/19 02:16:01;;;;;;;2.10;1.33;;;;;;;9.13;100.00;97129.91;5035659;28;20205;-67
2024/02/19 02:18:29;;;;;;;2.20;1.20;;;;;;;9.22;100.00;97129.84;5037823;28;20886;-67
2024/02/19 02:20:56;;;;;;;1.37;0.90;;;;;;;8.93;100.00;97130.16;5036728;28;20197;-66
2024/02/19 02:23:24;;;;;;;4.10;1.40;;;;;;;9.14;100.00;97115.81;5036546;28;20583;-67
2024/02/19 02:25:51;;;;;;;1.43;1.13;;;;;;;9.04;100.00;97112.38;5035725;28;20216;-67
2024/02/19 02:28:19;;;;;;;1.77;1.13;;;;;;;9.17;100.00;97121.56;5036783;28;20213;-67
2024/02/19 02:30:45;;;;;;;2.20;1.40;;;;;;;8.98;100.00;97120.84;5035368;28;20631;-65
2024/02/19 02:33:12;;;;;;;1.60;1.10;;;;;;;8.91;100.00;97134.72;5036136;28;20248;-67
2024/02/19 02:35:39;;;;;;;1.37;1.10;;;;;;;8.92;100.00;97131.94;5035828;28;20211;-67
2024/02/19 02:38:06;;;;;;;1.63;1.33;;;;;;;8.88;100.00;97130.56;5036014;28;20202;-67
2024/02/19 02:40:32;;;;;;;1.40;1.20;;;;;;;8.86;100.00;97126.44;5035940;28;20730;-68
2024/02/19 02:42:59;;;;;;;3.07;1.50;;;;;;;8.79;100.00;97118.31;5035929;28;20232;-68
2024/02/19 02:45:26;;;;;;;2.13;1.10;;;;;;;8.94;100.00;97129.19;5035344;28;20887;-65
2024/02/19 02:47:53;;;;;;;2.90;1.50;;;;;;;8.99;100.00;97119.88;5036769;28;20205;-64
2024/02/19 02:50:19;;;;;;;2.10;1.50;;;;;;;8.92;100.00;97116.16;5035821;28;20237;-65
2024/02/19 02:52:47;;;;;;;2.07;1.40;;;;;;;8.92;100.00;97129.31;5035442;28;20225;-66
2024/02/19 02:55:13;;;;;;;1.80;1.33;;;;;;;9.01;100.00;97119.72;5037016;28;20480;-64
2024/02/19 02:57:40;;;;;;;2.07;1.27;;;;;;;8.84;100.00;97123.97;5036018;28;20208;-65
2024/02/19 03:00:08;;;;;;;1.80;1.50;;;;;;;9.15;100.00;97127.94;5035023;28;20320;-65
2024/02/19 03:02:36;;;;;;;1.60;1.30;;;;;;;9.03;100.00;97131.75;5035497;28;20661;-66
2024/02/19 03:05:03;;;;;;;3.13;1.83;;;;;;;8.82;100.00;97133.81;5036299;28;20216;-64
2024/02/19 03:07:29;;;;;;;3.03;1.53;;;;;;;8.71;100.00;97133.97;5035704;28;20205;-67
2024/02/19 03:09:57;;;;;;;6.90;1.90;;;;;;;8.93;100.00;97133.59;5035436;28;20240;-67
2024/02/19 03:12:23;;;;;;;2.53;1.50;;;;;;;8.90;100.00;97127.81;5035542;28;20650;-66
2024/02/19 03:14:50;;;;;;;2.70;1.87;;;;;;;8.95;100.00;97123.78;5035338;28;20216;-68
2024/02/19 03:17:16;;;;;;;2.97;1.50;;;;;;;9.05;100.00;97127.19;5035143;28;20224;-68
2024/02/19 03:19:44;;;;;;;2.27;1.60;;;;;;;9.01;100.00;97119.72;5036846;28;20201;-67
2024/02/19 03:22:11;;;;;;;2.53;1.30;;;;;;;8.89;100.00;97126.97;5034792;28;20232;-66
2024/02/19 03:24:38;;;;;;;2.00;1.33;;;;;;;9.08;100.00;97126.06;5035438;28;20293;-67
2024/02/19 03:27:05;;;;;;;2.80;1.67;;;;;;;9.00;100.00;97115.44;5035919;28;20695;-67
2024/02/19 03:29:31;;;;;;;2.73;1.33;;;;;;;9.01;100.00;97125.00;5035843;28;20306;-66
2024/02/19 03:31:58;;;;;;;1.63;1.33;;;;;;;9.03;100.00;97120.44;5035053;28;20229;-67
2024/02/19 03:34:24;;;;;;;2.20;1.30;;;;;;;9.05;100.00;97127.19;5035010;28;20205;-65
2024/02/19 03:36:52;;;;;;;2.13;1.37;;;;;;;9.18;100.00;97131.13;5035268;28;20692;-67
2024/02/19 03:39:19;;;;;;;1.70;1.27;;;;;;;9.08;100.00;97132.16;5034977;28;20288;-67
2024/02/19 03:41:45;;;;;;;1.87;1.23;;;;;;;8.98;100.00;97134.00;5031833;28;20229;-67
2024/02/19 03:44:12;;;;;;;2.27;1.23;;;;;;;9.03;100.00;97139.66;5035439;28;20574;-67
2024/02/19 03:46:38;;;;;;;1.70;1.00;;;;;;;9.05;100.00;97134.25;5034680;28;20209;-65
2024/02/19 03:49:05;;;;;;;2.20;1.40;;;;;;;9.12;100.00;97138.78;5034331;28;20297;-65
2024/02/19 03:51:31;;;;;;;1.00;0.80;;;;;;;9.09;100.00;97136.44;5034024;28;20235;-67
2024/02/19 03:53:59;;;;;;;1.33;1.07;;;;;;;9.27;100.00;97143.38;5034942;28;20499;-67
2024/02/19 03:56:26;;;;;;;1.30;0.90;;;;;;;9.14;100.00;97139.47;5035168;28;20205;-66
2024/02/19 03:58:52;;;;;;;0.83;0.80;;;;;;;9.11;100.00;97142.38;5034688;28;20211;-67
2024/02/19 04:01:19;;;;;;;2.37;1.23;;;;;;;9.02;100.00;97134.53;5033715;28;20228;-66
2024/02/19 04:03:46;;;;;;;1.83;1.00;;;;;;;9.08;100.00;97145.31;5033824;28;20762;-66
2024/02/19 04:06:12;;;;;;;3.67;1.00;;;;;;;9.09;100.00;97145.16;5032945;28;20205;-67
2024/02/19 04:08:40;;;;;;;1.30;0.90;;;;;;;9.07;100.00;97140.19;5034280;28;20584;-67
2024/02/19 04:11:07;;;;;;;0.87;0.73;;;;;;;9.13;100.00;97140.44;5034529;28;20221;-67
2024/02/19 04:13:34;;;;;;;1.93;1.00;;;;;;;9.01;100.00;97135.50;5033540;28;20208;-67
2024/02/19 04:16:00;;;;;;;2.13;1.00;;;;;;;9.04;100.00;97141.31;5033656;28;20201;-66
2024/02/19 04:18:27;;;;;;;2.70;1.33;;;;;;;9.21;100.00;97145.78;5034648;28;20240;-66
2024/02/19 04:20:53;;;;;;;1.00;0.90;;;;;;;9.09;100.00;97145.16;5034177;28;20201;-67
2024/02/19 04:23:20;;;;;;;1.00;0.90;;;;;;;9.12;100.00;97144.03;5034105;28;20219;-64
2024/02/19 04:25:48;;;;;;;1.40;0.97;;;;;;;9.25;100.00;97139.25;5036158;28;20215;-67
2024/02/19 04:28:16;;;;;;;2.50;1.00;;;;;;;9.20;100.00;97146.75;5034973;28;20205;-67
2024/02/19 04:30:43;;;;;;;1.87;1.07;;;;;;;9.22;100.00;97152.69;5033834;28;20225;-67
2024/02/19 04:33:10;;;;;;;1.30;0.90;;;;;;;9.17;100.00;97154.94;5034332;28;20247;-66
2024/02/19 04:35:37;;;;;;;1.77;0.90;;;;;;;9.15;100.00;97151.63;5034664;28;20237;-66
2024/02/19 04:38:03;;;;;;;0.93;0.80;;;;;;;9.06;100.00;97155.13;5034741;28;20205;-67
2024/02/19 04:40:30;;;;;;;0.70;0.60;;;;;;;9.20;100.00;97152.84;5033572;28;20207;-66
2024/02/19 04:42:56;;;;;;;1.07;0.80;;;;;;;9.07;100.00;97155.97;5034289;28;20596;-68
2024/02/19 04:45:24;;;;;;;1.77;1.13;;;;;;;9.20;100.00;97162.53;5034181;28;20212;-68
2024/02/19 04:47:51;;;;;;;0.73;0.60;;;;;;;9.07;100.00;97169.09;5034688;28;20445;-69
2024/02/19 04:50:18;;;;;;;0.77;0.67;;;;;;;9.10;100.00;97178.38;5034070;28;20484;-65
2024/02/19 04:52:44;;;;;;;1.93;1.30;;;;;;;9.19;100.00;97176.69;5034048;28;20252;-67
2024/02/19 04:55:11;;;;;;;1.40;0.90;;;;;;;9.07;100.00;97177.00;5034015;28;20655;-66
2024/02/19 04:57:38;;;;;;;1.57;0.80;;;;;;;9.15;100.00;97176.13;5035816;28;20211;-67
2024/02/19 05:00:05;;;;;;;0.70;0.70;;;;;;;9.12;100.00;97183.47;5038675;28;20193;-67
2024/02/19 05:02:33;;;;;;;1.33;1.00;;;;;;;9.31;100.00;97167.59;5037578;28;20766;-67
2024/02/19 05:05:00;;;;;;;0.87;0.80;;;;;;;9.14;100.00;97173.66;5038179;28;20205;-66
2024/02/19 05:07:26;;;;;;;1.70;1.00;;;;;;;9.22;100.00;97171.09;5037593;28;20201;-65
2024/02/19 05:09:53;;;;;;;0.70;0.60;;;;;;;9.06;100.00;97170.91;5037808;28;20201;-66
2024/02/19 05:12:19;;;;;;;0.80;0.80;;;;;;;9.12;100.00;97167.69;5036904;28;20606;-69
2024/02/19 05:14:46;;;;;;;0.63;0.63;;;;;;;9.20;100.00;97168.63;5037230;28;20216;-66
2024/02/19 05:17:12;;;;;;;0.93;0.80;;;;;;;9.23;100.00;97164.88;5037764;28;20201;-67
2024/02/19 05:19:41;;;;;;;2.23;0.80;;;;;;;9.51;100.00;97163.88;5038012;28;20201;-66
2024/02/19 05:22:08;;;;;;;1.27;0.90;;;;;;;9.34;100.00;97173.41;5037499;28;20792;-69
2024/02/19 05:24:35;;;;;;;1.07;0.87;;;;;;;9.39;100.00;97167.69;5038474;28;20811;-68
2024/02/19 05:27:01;;;;;;;0.80;0.77;;;;;;;9.26;100.00;97172.47;5037490;28;20663;-69
2024/02/19 05:29:28;;;;;;;2.13;1.53;;;;;;;9.42;100.00;97162.97;5038084;28;20618;-67
2024/02/19 05:31:55;;;;;;;1.33;1.10;;;;;;;9.24;100.00;97153.38;5036911;28;20675;-65
2024/02/19 05:34:21;;;;;;;0.90;0.70;;;;;;;9.27;100.00;97158.34;5037600;28;20612;-65
2024/02/19 05:36:49;;;;;;;1.40;1.00;;;;;;;9.62;100.00;97153.97;5037213;28;20209;-67
2024/02/19 05:39:15;;;;;;;1.27;0.83;;;;;;;9.46;100.00;97150.34;5037434;28;20201;-66
2024/02/19 05:41:43;;;;;;;4.17;1.83;;;;;;;9.27;100.00;97148.66;5036434;28;20217;-65
2024/02/19 05:44:10;;;;;;;1.57;0.97;;;;;;;9.33;100.00;97152.47;5037643;28;20209;-64
2024/02/19 05:46:37;;;;;;;3.57;1.20;;;;;;;9.42;100.00;97156.84;5037642;28;20289;-67
2024/02/19 05:49:04;;;;;;;2.07;1.10;;;;;;;9.37;100.00;97167.03;5037478;28;20193;-66
2024/02/19 05:51:30;;;;;;;2.00;1.20;;;;;;;9.32;100.00;97161.38;5036197;28;20225;-67
2024/02/19 05:53:58;;;;;;;1.97;1.30;;;;;;;9.51;100.00;97161.22;5037540;28;20216;-67
2024/02/19 05:56:26;;;;;;;1.33;1.20;;;;;;;9.25;100.00;97155.03;5036696;28;20381;-67
2024/02/19 05:58:53;;;;;;;1.67;1.17;;;;;;;9.34;100.00;97156.78;5036547;28;20205;-65
2024/02/19 06:01:20;;;;;;;1.80;1.40;;;;;;;9.44;100.00;97155.75;5036792;28;20232;-67
2024/02/19 06:03:46;;;;;;;1.23;1.13;;;;;;;9.25;100.00;97157.66;5037360;28;20205;-65
2024/02/19 06:06:13;;;;;;;1.57;1.20;;;;;;;9.18;100.00;97146.09;5036229;28;20805;-65
2024/02/19 06:08:39;;;;;;;1.20;0.90;;;;;;;9.09;100.00;97154.84;5037218;28;20205;-67
2024/02/19 06:11:07;;;;;;;2.07;1.10;;;;;;;9.34;100.00;97160.25;5036498;28;20221;-68
2024/02/19 06:13:34;;;;;;;3.17;1.10;;;;;;;8.99;100.00;97167.19;5036736;28;20385;-66
2024/02/19 06:16:01;;;;;;;2.00;1.10;;;;;;;9.13;100.00;97159.66;5035806;28;20373;-65
2024/02/19 06:18:28;;;;;;;0.97;0.80;;;;;;;9.18;100.00;97161.88;5036426;28;20610;-67
2024/02/19 06:20:54;;;;;;;0.90;0.63;;;;;;;9.14;100.00;97165.75;5035500;28;20560;-67
2024/02/19 06:23:21;;;;;;;1.40;0.90;;;;;;;9.17;100.00;97162.81;5036321;28;20219;-68
2024/02/19 06:25:47;;;;;;;2.97;0.90;;;;;;;9.21;100.00;97172.06;5037083;28;20565;-66
2024/02/19 06:28:15;;;;;;;1.00;0.90;;;;;;;9.35;100.00;97182.13;5037003;28;20928;-70
2024/02/19 06:30:42;;;;;;;1.27;0.80;;;;;;;9.19;100.00;97182.75;5036847;28;20607;-66
2024/02/19 06:33:08;;;;;;;1.00;0.70;;;;;;;9.03;100.00;97184.34;5035757;28;20225;-67
2024/02/19 06:35:35;;;;;;;1.60;1.00;;;;;;;9.14;100.00;97186.78;5036943;28;20585;-67
2024/02/19 06:38:02;;;;;;;1.33;1.10;;;;;;;9.08;100.00;97180.28;5036501;28;20216;-68
2024/02/19 06:40:28;;;;;;;0.70;0.57;;;;;;;9.15;100.00;97188.44;5036177;28;20597;-68
2024/02/19 06:42:55;;;;;;;1.70;1.00;;;;;;;9.30;100.00;97182.53;5035971;28;20225;-65
2024/02/19 06:45:23;;;;;;;1.93;1.20;;;;;;;9.19;100.00;97192.44;5036375;28;20213;-68
2024/02/19 06:47:50;;;;;;;0.93;0.60;;;;;;;9.25;100.00;97191.84;5036111;28;20209;-70
2024/02/19 06:50:16;;;;;;;2.40;1.00;;;;;;;9.25;100.00;97205.84;5036320;28;20657;-68
2024/02/19 06:52:45;;;;;;;1.40;0.90;;;;;;;9.22;100.00;97197.41;5035089;28;20917;-70
2024/02/19 06:55:12;;;;;;;1.33;1.17;;;;;;;9.37;100.00;97201.22;5036169;28;20220;-69
2024/02/19 06:57:39;;;;;;;2.10;1.13;;;;;;;9.25;100.00;97203.22;5034715;28;20205;-68
2024/02/19 07:00:07;;;;;;;1.70;1.20;;;;;;;9.53;100.00;97211.91;5034425;28;20209;-68
2024/02/19 07:02:35;;;;;;;4.67;1.83;;;;;;;9.62;100.00;97211.03;5034017;28;20612;-67
2024/02/19 07:05:05;;;;;;;2.53;1.57;;;;;;;9.41;100.00;97219.19;5035290;28;20212;-66
2024/02/19 07:07:32;;;;;;;2.00;1.13;;;;;;;9.47;100.00;97220.38;5035148;28;20614;-70
2024/02/19 07:09:58;;;;;;;7.57;1.13;;;;;;;9.58;100.00;97214.94;5033986;28;20211;-70
2024/02/19 07:12:26;;;;;;;3.13;1.53;;;;;;;9.45;100.00;97219.72;5034545;28;20229;-69
2024/02/19 07:14:53;;;;;;;2.77;1.37;;;;;;;9.67;100.00;97208.78;5034330;28;20201;-68
2024/02/19 07:17:19;;;;;;;5.23;2.20;;;;;;;9.54;100.00;97224.09;5035107;28;20201;-68
2024/02/19 07:19:47;;;;;;;2.40;1.57;;;;;;;9.87;100.00;97230.38;5035468;28;20205;-68
2024/02/19 07:22:13;;;;;;;5.20;2.20;;;;;;;9.69;100.00;97234.81;5033163;28;20247;-66
2024/02/19 07:24:40;;;;;;;5.20;1.97;;;;;;;9.81;100.00;97233.63;5034479;28;20209;-67
2024/02/19 07:27:06;;;;;;;3.97;1.80;;;;;;;9.90;100.00;97231.91;5035781;28;20201;-67
2024/02/19 07:29:33;;;;;;;4.97;2.30;;;;;;;9.73;100.00;97236.16;5035865;28;20208;-67
2024/02/19 07:31:59;;;;;;;4.87;1.57;;;;;;;9.85;100.00;97242.91;5034182;28;20235;-67
2024/02/19 07:34:26;;;;;;;3.10;1.60;;;;;;;9.78;100.00;97247.06;5035558;28;20209;-68
2024/02/19 07:36:54;;;;;;;2.47;1.10;;;;;;;9.87;100.00;97245.38;5035725;28;20212;-67
2024/02/19 07:39:21;;;;;;;4.43;1.70;;;;;;;9.89;100.00;97248.66;5034893;28;20212;-68
2024/02/19 07:41:47;;;;;;;4.00;1.50;;;;;;;9.73;100.00;97266.94;5035361;28;20221;-68
2024/02/19 07:44:14;;;;;;;2.50;1.43;;;;;;;9.75;100.00;97260.53;5035733;28;20205;-67
2024/02/19 07:46:40;;;;;;;1.47;1.03;;;;;;;9.88;100.00;97257.56;5035544;28;20215;-68
2024/02/19 07:49:07;;;;;;;2.37;1.10;;;;;;;9.79;100.00;97261.91;5035773;28;20205;-68
2024/02/19 07:51:34;;;;;;;2.33;1.03;;;;;;;9.74;100.00;97268.59;5034532;28;20229;-67
2024/02/19 07:54:01;;;;;;;2.47;1.10;;;;;;;9.97;100.00;97265.44;5035385;28;20619;-68
2024/02/19 07:56:28;;;;;;;1.80;0.83;;;;;;;9.84;100.00;97270.19;5034647;28;20201;-68
2024/02/19 07:58:54;;;;;;;3.30;0.97;;;;;;;9.99;100.00;97271.38;5035973;28;20205;-69
2024/02/19 08:01:21;;;;;;;1.87;0.73;;;;;;;9.99;100.00;97270.53;5034374;28;20225;-68
2024/02/19 08:03:47;;;;;;;1.90;0.67;;;;;;;9.82;100.00;97281.84;5034739;28;20208;-67
2024/02/19 08:06:14;;;;;;;1.10;0.80;;;;;;;9.97;100.00;97275.97;5034788;28;20219;-65
2024/02/19 08:08:41;;;;;;;1.70;1.00;;;;;;;10.16;100.00;97289.00;5034827;28;20205;-65
2024/02/19 08:11:09;;;;;;;1.67;1.10;;;;;;;10.49;100.00;97293.63;5034523;28;20231;-65
2024/02/19 08:13:35;;;;;;;4.10;1.30;;;;;;;10.26;100.00;97297.66;5035136;28;20215;-69
2024/02/19 08:16:02;;;;;;;2.80;1.03;;;;;;;10.31;100.00;97295.41;5035046;28;20201;-66
2024/02/19 08:18:28;;;;;;;2.70;1.03;;;;;;;10.43;100.00;97297.66;5035074;28;20209;-68
2024/02/19 08:20:55;;;;;;;2.07;1.20;;;;;;;10.60;100.00;97299.50;5032956;28;20235;-66
2024/02/19 08:23:21;;;;;;;2.13;1.30;;;;;;;10.51;100.00;97303.03;5035573;28;20241;-68
2024/02/19 08:25:48;;;;;;;3.53;1.13;;;;;;;10.43;100.00;97310.03;5035371;28;21007;-68
2024/02/19 08:28:16;;;;;;;1.30;1.20;;;;;;;10.56;100.00;97308.66;5033806;28;20208;-68
2024/02/19 08:30:43;;;;;;;2.03;1.17;;;;;;;10.67;100.00;97307.63;5033616;28;20211;-68
2024/02/19 08:33:09;;;;;;;2.57;1.47;;;;;;;10.62;100.00;97312.50;5035819;28;20216;-65
2024/02/19 08:35:36;;;;;;;2.10;1.10;;;;;;;10.50;100.00;97319.81;5037207;28;21120;-65
2024/02/19 08:38:02;;;;;;;1.73;1.17;;;;;;;10.38;100.00;97328.09;5039628;28;20701;-68
2024/02/19 08:40:29;;;;;;;1.20;1.00;;;;;;;10.34;100.00;97332.00;5038873;28;20205;-66
2024/02/19 08:42:55;;;;;;;5.40;1.33;;;;;;;10.58;100.00;97324.34;5037134;28;20217;-66
2024/02/19 08:45:23;;;;;;;3.27;1.73;;;;;;;10.78;100.00;97326.66;5038854;28;20216;-65
2024/02/19 08:47:50;;;;;;;2.20;1.30;;;;;;;10.48;100.00;97334.13;5038936;28;20207;-66
2024/02/19 08:50:16;;;;;;;3.70;1.50;;;;;;;10.57;100.00;97330.59;5034584;28;20291;-69
2024/02/19 08:52:43;;;;;;;2.07;1.27;;;;;;;10.35;100.00;97341.56;5036003;28;20232;-68
2024/02/19 08:55:10;;;;;;;2.07;1.57;;;;;;;10.50;100.00;97338.25;5038267;28;20199;-67
2024/02/19 08:57:36;;;;;;;1.30;1.00;;;;;;;10.53;100.00;97342.41;5036479;28;20286;-68
2024/02/19 09:00:04;;;;;;;1.10;0.90;;;;;;;10.62;100.00;97342.31;5036891;28;20709;-67
2024/02/19 09:02:32;;;;;;;2.13;1.80;;;;;;;10.62;100.00;97344.13;5034995;28;20218;-66
2024/02/19 09:04:59;;;;;;;2.77;1.60;;;;;;;10.45;100.00;97347.56;5036041;28;20201;-68
2024/02/19 09:07:25;;;;;;;7.73;1.60;;;;;;;10.48;100.00;97348.13;5035917;28;20201;-68
2024/02/19 09:09:52;;;;;;;1.53;0.90;;;;;;;10.45;100.00;97350.22;5037310;28;20704;-65
2024/02/19 09:12:20;;;;;;;1.33;0.60;;;;;;;10.26;100.00;97355.63;5036261;28;20225;-66
2024/02/19 09:14:47;;;;;;;4.80;1.53;;;;;;;10.44;100.00;97348.56;5037503;28;20205;-66
2024/02/19 09:17:14;;;;;;;0.80;0.70;;;;;;;10.34;100.00;97348.63;5037967;28;20573;-65
2024/02/19 09:19:42;;;;;;;3.67;1.00;;;;;;;10.68;100.00;97348.78;5037683;28;20224;-67
2024/02/19 09:22:11;;;;;;;2.50;0.80;;;;;;;10.36;100.00;97345.84;5037790;28;20575;-69
2024/02/19 09:24:39;;;;;;;1.40;0.87;;;;;;;10.45;100.00;97355.47;5036261;28;20279;-68
2024/02/19 09:27:05;;;;;;;1.93;1.10;;;;;;;10.38;100.00;97352.63;5036073;28;20209;-69
2024/02/19 09:29:32;;;;;;;1.07;0.97;;;;;;;10.39;100.00;97350.81;5035864;28;20826;-68
2024/02/19 09:31:59;;;;;;;1.30;0.70;;;;;;;10.59;100.00;97347.06;5034285;28;20225;-66
2024/02/19 09:34:25;;;;;;;1.77;1.00;;;;;;;10.48;100.00;97363.94;5036472;28;20198;-68
2024/02/19 09:36:53;;;;;;;2.10;1.10;;;;;;;10.71;100.00;97351.97;5035868;28;20197;-67
2024/02/19 09:39:20;;;;;;;2.47;0.90;;;;;;;10.42;100.00;97351.38;5034973;28;20208;-68
2024/02/19 09:41:47;;;;;;;1.10;0.80;;;;;;;10.66;100.00;97354.22;5035471;28;20305;-68
2024/02/19 09:44:13;;;;;;;1.93;1.23;;;;;;;10.64;100.00;97344.81;5034876;28;20671;-69
2024/02/19 09:46:43;;;;;;;2.70;0.73;;;;;;;10.74;100.00;97349.00;5034323;28;20197;-68
2024/02/19 09:49:11;;;;;;;4.50;1.10;;;;;;;10.51;100.00;97360.16;5034808;28;20663;-68
2024/02/19 09:51:40;;;;;;;3.57;0.90;;;;;;;10.64;100.00;97356.19;5030291;28;20913;-67
2024/02/19 09:54:10;;;;;;;1.47;1.20;;;;;;;10.61;100.00;97366.19;5033542;28;20323;-70
2024/02/19 09:56:37;;;;;;;3.23;1.03;;;;;;;10.47;100.00;97364.91;5035299;28;20573;-69
2024/02/19 09:59:05;;;;;;;1.83;0.80;;;;;;;10.47;100.00;97364.06;5034442;28;20296;-69
2024/02/19 10:01:32;;;;;;;3.33;0.90;;;;;;;10.47;100.00;97369.34;5033591;28;20225;-67
2024/02/19 10:03:59;;;;;;;1.20;1.00;;;;;;;10.30;100.00;97372.78;5034103;28;20215;-69
2024/02/19 10:06:33;;;;;;;4.63;1.00;;;;;;;10.54;100.00;97378.34;5035033;28;20569;-68
2024/02/19 10:09:06;;;;;;;3.00;1.20;;;;;;;10.32;100.00;97383.19;5033810;28;20200;-69
2024/02/19 10:11:34;;;;;;;1.33;1.07;;;;;;;10.35;100.00;97383.72;5033683;28;20295;-68
2024/02/19 10:14:01;;;;;;;2.30;1.37;;;;;;;10.30;100.00;97383.34;5035756;28;20201;-68
2024/02/19 10:16:27;;;;;;;1.10;0.80;;;;;;;10.33;100.00;97378.59;5034583;28;20201;-68
2024/02/19 10:19:03;;;;;;;2.80;1.43;;;;;;;10.64;100.00;97371.16;5035099;28;20267;-68
2024/02/19 10:21:30;;;;;;;0.70;0.70;;;;;;;10.36;100.00;97378.31;5035024;28;20225;-66
2024/02/19 10:23:56;;;;;;;0.80;0.80;;;;;;;10.37;100.00;97376.47;5034633;28;20856;-68
2024/02/19 10:26:23;;;;;;;3.10;1.20;;;;;;;10.31;100.00;97385.00;5035053;28;20197;-68
2024/02/19 10:28:54;;;;;;;1.00;0.80;;;;;;;10.42;100.00;97382.97;5033981;28;20205;-68
2024/02/19 10:31:21;;;;;;;1.03;0.73;;;;;;;10.35;100.00;97387.19;5032503;28;20221;-67
2024/02/19 10:33:47;;;;;;;6.80;1.40;;;;;;;10.43;100.00;97387.25;5033980;28;20217;-68
2024/02/19 10:36:15;;;;;;;1.77;1.30;;;;;;;10.48;100.00;97374.47;5034431;28;20586;-67
2024/02/19 10:38:42;;;;;;;23.93;1.87;;;;;;;10.49;100.00;97377.94;5033885;28;20296;-68
2024/02/19 10:41:09;;;;;;;2.97;1.80;;;;;;;10.58;100.00;97382.31;5033745;28;20236;-69
2024/02/19 10:43:36;;;;;;;1.13;0.87;;;;;;;10.41;100.00;97385.75;5034303;28;20198;-68
2024/02/19 10:46:04;;;;;;;4.47;0.77;;;;;;;10.55;100.00;97383.44;5032859;28;20211;-69
2024/02/19 10:48:31;;;;;;;3.47;1.00;;;;;;;10.40;100.00;97387.56;5032200;28;20319;-68
2024/02/19 10:50:58;;;;;;;3.57;2.00;;;;;;;10.47;100.00;97379.88;5032254;28;20666;-69
2024/02/19 10:53:28;;;;;;;1.10;0.77;;;;;;;10.63;100.00;97391.44;5033574;28;20706;-68
2024/02/19 10:56:20;;;;;;;3.43;1.07;;;;;;;10.85;100.00;97395.44;5033188;28;20208;-69
2024/02/19 10:58:54;;;;;;;3.90;1.33;;;;;;;10.75;100.00;97392.84;5034643;28;20672;-69
2024/02/19 11:01:24;;;;;;;2.17;1.13;;;;;;;10.75;100.00;97399.94;5034326;28;20307;-68
2024/02/19 11:03:50;;;;;;;3.57;1.37;;;;;;;10.51;100.00;97407.59;5035067;28;20308;-69
2024/02/19 11:06:17;;;;;;;2.03;0.60;;;;;;;10.42;100.00;97405.84;5033427;28;20207;-69
2024/02/19 11:08:51;;;;;;;1.83;0.70;;;;;;;10.65;100.00;97400.00;5035444;28;20201;-69
2024/02/19 11:11:20;;;;;;;4.00;0.80;;;;;;;10.52;100.00;97407.44;5028909;28;20221;-69
2024/02/19 11:13:57;;;;;;;5.00;0.87;;;;;;;10.58;100.00;97408.69;5032886;28;20779;-69
2024/02/19 11:16:27;;;;;;;9.17;1.70;;;;;;;10.79;100.00;97403.94;5032160;28;20205;-70
2024/02/19 11:18:59;;;;;;;4.10;1.43;;;;;;;10.67;100.00;97397.25;5034098;28;20201;-71
2024/02/19 11:21:26;;;;;;;5.20;1.30;;;;;;;10.54;100.00;97391.50;5032746;28;20298;-68
2024/02/19 11:23:52;;;;;;;2.43;1.10;;;;;;;10.38;100.00;97401.84;5035096;28;20239;-70
2024/02/19 11:26:19;;;;;;;2.60;1.10;;;;;;;10.52;100.00;97389.00;5033550;28;20315;-70
2024/02/19 11:28:46;;;;;;;3.23;0.90;;;;;;;10.58;100.00;97387.59;5034641;28;20207;-70
2024/02/19 11:31:14;;;;;;;3.37;0.97;;;;;;;10.61;100.00;97382.00;5032252;28;20221;-71